Time;durP1;ratioP1;P1;durP2;ratioP2;P2;SDS_P1;SDS_P2;PMS_P1;PMS_P2;Temp;Humidity;BMP_temperature;BMP_pressure;BME280_temperature;BME280_humidity;BME280_pressure;Samples;Min_cycle;Max_cycle;Signal;HPM_P1;HPM_P2
2023/01/29 00:00:40;;;;;;;26.83;9.67;;;;;;;3.87;nan;101965.28;4792574;29;20953;-93
2023/01/29 00:03:24;;;;;;;19.80;7.50;;;;;;;3.83;nan;101963.81;4806853;29;20604;-92
2023/01/29 00:05:58;;;;;;;15.77;7.10;;;;;;;3.77;nan;101948.06;4792193;29;20454;-93
2023/01/29 00:12:21;;;;;;;15.70;6.90;;;;;;;3.72;nan;101952.97;4807618;29;20434;-92
2023/01/29 00:14:48;;;;;;;15.20;6.63;;;;;;;3.68;nan;101946.94;4791579;29;20493;-93
2023/01/29 00:17:36;;;;;;;14.20;6.07;;;;;;;3.73;nan;101946.56;4777233;29;20877;-92
2023/01/29 00:20:10;;;;;;;13.07;5.00;;;;;;;3.72;nan;101948.41;4791686;29;20467;-92
2023/01/29 00:23:16;;;;;;;10.13;4.90;;;;;;;3.70;nan;101939.56;4791082;29;20490;-93
2023/01/29 00:26:03;;;;;;;10.80;4.63;;;;;;;3.68;nan;101935.25;4820715;29;20461;-93
2023/01/29 00:35:44;;;;;;;12.77;6.37;;;;;;;3.56;nan;101920.00;4807221;29;21028;-92
2023/01/29 00:48:35;;;;;;;20.43;6.00;;;;;;;3.50;nan;101921.34;4807059;29;20553;-93
2023/01/29 00:51:38;;;;;;;11.50;6.37;;;;;;;3.42;nan;101923.78;4821644;29;20818;-92
2023/01/29 00:54:19;;;;;;;11.20;5.10;;;;;;;3.40;nan;101926.59;4792147;29;20526;-91
2023/01/29 01:00:35;;;;;;;9.17;4.10;;;;;;;3.35;nan;101915.28;4808280;29;20487;-93
2023/01/29 01:06:50;;;;;;;8.93;4.97;;;;;;;3.33;nan;101909.13;4792619;30;20426;-92
2023/01/29 01:13:46;;;;;;;10.30;5.00;;;;;;;3.26;nan;101902.50;4791118;30;21030;-93
2023/01/29 01:20:14;;;;;;;24.80;12.63;;;;;;;3.15;nan;101894.34;4791933;30;20442;-93
2023/01/29 01:22:42;;;;;;;18.77;10.43;;;;;;;3.14;nan;101895.31;4790768;29;20541;-92
2023/01/29 01:25:10;;;;;;;18.77;9.50;;;;;;;3.09;nan;101879.47;4761125;30;20509;-91
2023/01/29 01:27:40;;;;;;;12.20;5.93;;;;;;;2.98;nan;101878.56;4761490;30;20520;-93
2023/01/29 01:30:10;;;;;;;10.63;5.47;;;;;;;3.02;nan;101877.38;4776332;29;20467;-93
2023/01/29 01:32:40;;;;;;;10.80;6.43;;;;;;;3.00;nan;101887.41;4761672;30;20470;-93
2023/01/29 01:35:14;;;;;;;13.43;7.53;;;;;;;3.07;nan;101888.69;4762552;30;20459;-91
2023/01/29 01:37:45;;;;;;;24.60;9.30;;;;;;;3.11;nan;101898.25;4790840;30;20869;-92
2023/01/29 01:40:17;;;;;;;14.87;9.10;;;;;;;3.01;nan;101876.50;4791151;29;21016;-93
2023/01/29 01:42:58;;;;;;;20.27;11.10;;;;;;;3.03;nan;101890.75;4760355;30;20495;-92
2023/01/29 01:45:35;;;;;;;18.10;9.17;;;;;;;3.00;nan;101898.22;4804938;29;20455;-92
2023/01/29 01:48:31;;;;;;;16.53;7.40;;;;;;;2.94;nan;101890.56;4790441;29;20463;-92
2023/01/29 01:51:24;;;;;;;17.57;9.07;;;;;;;2.88;nan;101896.47;4791030;30;20872;-93
2023/01/29 01:57:32;;;;;;;16.30;8.27;;;;;;;2.86;nan;101883.06;4791609;30;20802;-93
2023/01/29 02:00:09;;;;;;;17.87;8.80;;;;;;;2.88;nan;101870.34;4774942;30;20473;-93
2023/01/29 02:16:06;;;;;;;14.80;7.10;;;;;;;2.82;nan;101878.03;4791364;30;20458;-92
2023/01/29 02:18:36;;;;;;;9.03;5.80;;;;;;;2.78;nan;101874.69;4789508;29;20467;-92
2023/01/29 02:21:59;;;;;;;9.00;4.90;;;;;;;2.78;nan;101869.28;4775702;30;20536;-92
2023/01/29 02:28:13;;;;;;;8.67;4.50;;;;;;;2.74;nan;101878.59;4790949;30;20438;-92
2023/01/29 02:31:19;;;;;;;6.23;3.97;;;;;;;2.72;nan;101867.91;4805554;29;20468;-92
2023/01/29 02:41:24;;;;;;;6.70;3.50;;;;;;;2.68;nan;101862.88;4790692;30;20806;-93
2023/01/29 02:44:21;;;;;;;6.43;4.03;;;;;;;2.69;nan;101859.19;4790803;29;21013;-92
2023/01/29 02:51:29;;;;;;;5.00;3.03;;;;;;;2.61;nan;101862.47;4772948;30;20439;-93
2023/01/29 02:54:13;;;;;;;8.10;2.90;;;;;;;2.56;nan;101859.25;4784151;29;20524;-92
2023/01/29 02:57:33;;;;;;;8.90;3.00;;;;;;;2.56;nan;101864.63;4769144;30;20455;-93
2023/01/29 03:00:21;;;;;;;5.20;2.80;;;;;;;2.52;nan;101867.69;4789872;30;20550;-93
2023/01/29 03:03:23;;;;;;;6.37;2.70;;;;;;;2.51;nan;101865.94;4774625;30;20508;-93
2023/01/29 03:06:05;;;;;;;3.90;2.60;;;;;;;2.49;nan;101858.00;4781896;30;20542;-92
2023/01/29 03:08:44;;;;;;;7.60;1.90;;;;;;;2.46;nan;101870.84;4797408;30;20459;-93
2023/01/29 03:11:24;;;;;;;5.00;2.20;;;;;;;2.38;nan;101858.78;4803733;29;20905;-93
2023/01/29 03:17:20;;;;;;;4.17;1.97;;;;;;;2.40;nan;101870.31;4807124;29;20461;-93
2023/01/29 03:20:28;;;;;;;2.60;1.90;;;;;;;2.37;nan;101866.97;4806960;29;20458;-93
2023/01/29 03:23:10;;;;;;;3.47;2.00;;;;;;;2.32;nan;101855.66;4806769;29;20537;-93
2023/01/29 03:32:25;;;;;;;4.90;2.30;;;;;;;2.37;nan;101861.59;4794336;29;20572;-93
2023/01/29 03:35:46;;;;;;;4.80;1.77;;;;;;;2.33;nan;101854.69;4806786;29;20473;-92
2023/01/29 03:38:48;;;;;;;2.97;1.70;;;;;;;2.31;nan;101853.97;4806598;29;20458;-93
2023/01/29 03:41:28;;;;;;;2.87;2.10;;;;;;;2.25;nan;101843.63;4806935;29;20474;-92
2023/01/29 03:48:09;;;;;;;2.53;1.43;;;;;;;2.17;nan;101835.22;4807811;29;20560;-92
2023/01/29 03:54:17;;;;;;;4.23;1.83;;;;;;;2.08;nan;101832.25;4808874;29;20449;-92
2023/01/29 04:00:31;;;;;;;4.93;1.47;;;;;;;2.18;nan;101850.44;4820820;29;20459;-92
2023/01/29 04:03:11;;;;;;;3.00;1.63;;;;;;;2.18;nan;101847.75;4813066;29;20500;-92
2023/01/29 04:05:44;;;;;;;2.83;1.30;;;;;;;2.14;nan;101840.84;4817640;29;20538;-92
2023/01/29 04:08:17;;;;;;;1.67;1.30;;;;;;;2.14;nan;101847.09;4791647;29;20474;-91
2023/01/29 04:10:44;;;;;;;1.60;1.03;;;;;;;2.10;nan;101839.38;4783008;29;20486;-92
2023/01/29 04:13:32;;;;;;;2.03;1.30;;;;;;;2.14;nan;101846.22;4790331;29;20983;-92
2023/01/29 04:16:11;;;;;;;3.37;1.37;;;;;;;2.10;nan;101833.97;4789659;29;20964;-93
2023/01/29 04:22:35;;;;;;;2.17;1.20;;;;;;;2.07;nan;101835.91;4807336;29;20488;-92
2023/01/29 04:25:31;;;;;;;3.50;1.63;;;;;;;2.07;nan;101835.91;4791952;29;20964;-92
2023/01/29 04:38:39;;;;;;;1.50;1.00;;;;;;;1.97;nan;101842.94;4807125;29;20807;-93
2023/01/29 04:41:29;;;;;;;5.60;1.40;;;;;;;1.90;nan;101833.59;4821497;29;20484;-92
2023/01/29 04:44:18;;;;;;;2.80;1.53;;;;;;;1.98;nan;101841.09;4793471;29;20498;-93
2023/01/29 04:47:24;;;;;;;2.10;1.20;;;;;;;1.97;nan;101834.84;4804924;29;20507;-93
2023/01/29 04:50:00;;;;;;;1.40;0.90;;;;;;;1.94;nan;101840.47;4804986;29;20473;-93
2023/01/29 04:59:47;;;;;;;4.40;1.47;;;;;;;1.81;nan;101838.78;4806309;29;20809;-92
2023/01/29 05:02:15;;;;;;;2.10;1.13;;;;;;;1.76;nan;101840.94;4805711;29;20491;-92
2023/01/29 05:04:43;;;;;;;2.57;1.33;;;;;;;1.70;nan;101837.72;4776267;29;20865;-93
2023/01/29 05:07:17;;;;;;;2.00;1.13;;;;;;;1.71;nan;101842.16;4776341;29;20458;-93
2023/01/29 05:13:18;;;;;;;1.93;1.13;;;;;;;1.70;nan;101839.56;4788599;29;20467;-92
2023/01/29 05:19:26;;;;;;;2.30;1.60;;;;;;;1.65;nan;101847.09;4788684;30;20484;-92
2023/01/29 05:21:58;;;;;;;2.40;1.10;;;;;;;1.67;nan;101846.03;4773875;30;20459;-93
2023/01/29 05:28:16;;;;;;;2.33;0.90;;;;;;;1.66;nan;101840.75;4788381;30;20461;-93
2023/01/29 05:34:14;;;;;;;2.90;1.53;;;;;;;1.67;nan;101853.25;4788334;29;20516;-92
2023/01/29 05:37:20;;;;;;;4.90;2.77;;;;;;;1.66;nan;101851.53;4773596;30;20463;-92
2023/01/29 05:40:04;;;;;;;7.20;4.00;;;;;;;1.64;nan;101846.25;4801539;29;20508;-92
2023/01/29 05:42:41;;;;;;;2.03;1.30;;;;;;;1.63;nan;101852.59;4776515;30;20465;-91
2023/01/29 05:45:17;;;;;;;2.37;1.30;;;;;;;1.61;nan;101845.59;4771459;29;20499;-91
2023/01/29 05:48:18;;;;;;;3.63;2.43;;;;;;;1.61;nan;101856.38;4775976;30;20459;-91
2023/01/29 05:51:34;;;;;;;1.97;1.40;;;;;;;1.59;nan;101852.91;4790797;29;20450;-91
2023/01/29 05:54:35;;;;;;;1.20;0.80;;;;;;;1.55;nan;101864.88;4789990;30;20467;-91
2023/01/29 05:57:16;;;;;;;1.30;0.77;;;;;;;1.53;nan;101861.44;4776130;30;21038;-92
2023/01/29 06:00:11;;;;;;;2.90;0.90;;;;;;;1.55;nan;101859.47;4775257;30;20467;-92
2023/01/29 06:03:03;;;;;;;2.57;1.23;;;;;;;1.54;nan;101860.47;4790339;30;20467;-91
2023/01/29 06:06:06;;;;;;;3.43;1.90;;;;;;;1.52;nan;101870.50;4789531;30;20535;-91
2023/01/29 06:12:14;;;;;;;2.60;2.00;;;;;;;1.44;nan;101864.78;4801690;29;20468;-92
2023/01/29 06:14:56;;;;;;;2.23;1.80;;;;;;;1.43;nan;101857.66;4778369;29;20526;-91
2023/01/29 06:18:00;;;;;;;2.80;1.70;;;;;;;1.46;nan;101870.91;4778557;29;20470;-91
2023/01/29 06:21:01;;;;;;;3.00;1.67;;;;;;;1.44;nan;101870.16;4794367;29;20457;-92
2023/01/29 06:24:12;;;;;;;3.53;2.07;;;;;;;1.41;nan;101873.06;4770841;30;20569;-91
2023/01/29 06:26:52;;;;;;;2.13;1.50;;;;;;;1.36;nan;101879.63;4762657;30;20959;-92
2023/01/29 06:32:46;;;;;;;10.60;4.10;;;;;;;1.36;nan;101882.31;4770425;30;20827;-92
2023/01/29 06:35:14;;;;;;;3.90;2.20;;;;;;;1.37;nan;101878.66;4742404;30;20468;-92
2023/01/29 06:41:28;;;;;;;1.80;1.30;;;;;;;1.38;nan;101891.16;4771044;30;20841;-92
2023/01/29 06:43:56;;;;;;;3.00;0.97;;;;;;;1.33;nan;101877.19;4738513;30;20615;-91
2023/01/29 06:46:24;;;;;;;4.60;0.90;;;;;;;1.41;nan;101897.31;4738680;30;20466;-91
2023/01/29 06:48:51;;;;;;;1.80;1.20;;;;;;;1.27;nan;101882.13;4768052;30;20514;-91
2023/01/29 06:51:44;;;;;;;2.90;1.47;;;;;;;1.36;nan;101895.78;4767932;30;20461;-91
2023/01/29 06:54:26;;;;;;;9.73;3.73;;;;;;;1.32;nan;101897.00;4770440;30;20456;-91
2023/01/29 07:00:40;;;;;;;6.07;2.70;;;;;;;1.25;nan;101892.97;4787129;30;20460;-92
2023/01/29 07:03:17;;;;;;;3.13;2.07;;;;;;;1.25;nan;101895.69;4794970;29;20470;-91
2023/01/29 07:06:07;;;;;;;3.87;1.90;;;;;;;1.26;nan;101904.63;4807571;29;20489;-91
2023/01/29 07:12:21;;;;;;;2.80;1.77;;;;;;;1.18;nan;101898.88;4808047;29;20506;-91
2023/01/29 07:18:52;;;;;;;4.27;1.70;;;;;;;1.19;nan;101896.09;4808316;29;21022;-92
2023/01/29 07:21:32;;;;;;;3.63;2.27;;;;;;;1.15;nan;101899.13;4807146;29;20598;-92
2023/01/29 07:27:41;;;;;;;5.03;1.33;;;;;;;1.16;nan;101912.44;4807458;29;20444;-92
2023/01/29 07:30:09;;;;;;;4.43;1.40;;;;;;;1.12;nan;101916.34;4776974;29;20450;-91
2023/01/29 07:33:01;;;;;;;4.70;2.30;;;;;;;1.12;nan;101919.03;4777159;29;20461;-91
2023/01/29 07:36:22;;;;;;;30.53;11.83;;;;;;;1.11;nan;101925.38;4789302;29;20458;-91
2023/01/29 07:46:03;;;;;;;10.60;2.10;;;;;;;1.04;nan;101924.06;4805676;29;20456;-91
2023/01/29 07:48:32;;;;;;;4.80;1.80;;;;;;;1.09;nan;101932.69;4776644;29;20462;-91
2023/01/29 07:54:46;;;;;;;7.93;2.43;;;;;;;1.03;nan;101933.97;4822357;29;20464;-91
2023/01/29 07:57:14;;;;;;;4.90;2.20;;;;;;;1.04;nan;101926.75;4806998;29;20507;-91
2023/01/29 07:59:41;;;;;;;9.20;2.77;;;;;;;1.07;nan;101940.00;4799772;29;20449;-92
2023/01/29 08:02:12;;;;;;;3.70;2.50;;;;;;;0.94;nan;101912.19;4815228;29;20454;-92
2023/01/29 08:04:41;;;;;;;6.37;2.90;;;;;;;1.11;nan;101937.97;4786165;29;20498;-91
2023/01/29 08:10:50;;;;;;;8.80;2.10;;;;;;;1.12;nan;101929.81;4789763;30;20488;-91
2023/01/29 08:13:21;;;;;;;9.57;2.90;;;;;;;1.21;nan;101936.38;4796529;29;20510;-92
2023/01/29 08:16:01;;;;;;;7.07;2.87;;;;;;;1.18;nan;101931.19;4790802;29;20466;-92
2023/01/29 08:18:37;;;;;;;7.90;2.73;;;;;;;1.22;nan;101932.72;4791623;29;20462;-92
2023/01/29 08:21:31;;;;;;;4.70;2.27;;;;;;;1.30;nan;101941.16;4792061;29;20461;-91
2023/01/29 08:24:10;;;;;;;4.67;2.53;;;;;;;1.32;nan;101939.22;4820755;29;21027;-91
2023/01/29 08:27:06;;;;;;;7.30;2.13;;;;;;;1.44;nan;101950.97;4790604;29;20466;-91
2023/01/29 08:29:46;;;;;;;10.47;4.20;;;;;;;1.52;nan;101954.88;4804540;29;20462;-91
2023/01/29 08:36:46;;;;;;;12.73;6.53;;;;;;;1.67;nan;101961.00;4805632;29;20971;-92
2023/01/29 08:42:48;;;;;;;11.83;6.00;;;;;;;1.81;nan;101966.28;4789447;30;20459;-92
2023/01/29 08:45:16;;;;;;;15.27;8.20;;;;;;;1.93;nan;101969.94;4788049;30;20498;-91
2023/01/29 08:47:49;;;;;;;9.87;5.70;;;;;;;2.02;nan;101972.00;4803714;29;20458;-91
2023/01/29 08:50:25;;;;;;;13.93;6.07;;;;;;;2.10;nan;101952.59;4790813;29;20465;-91
2023/01/29 08:52:57;;;;;;;12.37;6.07;;;;;;;2.28;nan;101978.25;4791594;29;20465;-92
2023/01/29 08:55:29;;;;;;;10.87;6.57;;;;;;;2.42;nan;101987.06;4787939;29;20810;-93
2023/01/29 08:58:07;;;;;;;14.13;7.07;;;;;;;2.54;nan;101985.31;4773587;30;20474;-95
2023/01/29 09:00:35;;;;;;;11.00;5.27;;;;;;;2.49;nan;101956.97;4760983;29;20510;-90
2023/01/29 09:03:03;;;;;;;11.50;5.50;;;;;;;2.72;nan;101973.16;4774808;29;20454;-91
2023/01/29 09:05:31;;;;;;;32.00;15.30;;;;;;;2.77;nan;101959.34;4790728;29;20504;-91
2023/01/29 09:07:59;;;;;;;70.43;32.53;;;;;;;3.02;nan;101980.84;4787732;29;20455;-90
2023/01/29 09:10:28;;;;;;;70.50;34.30;;;;;;;3.12;nan;101986.41;4792345;29;20456;-91
2023/01/29 09:12:56;;;;;;;77.97;34.17;;;;;;;3.17;nan;101968.03;4805418;29;20479;-94
2023/01/29 09:15:24;;;;;;;43.57;20.57;;;;;;;3.34;nan;101975.69;4791525;29;20458;-91
2023/01/29 09:17:51;;;;;;;34.20;15.23;;;;;;;3.47;nan;101971.06;4793554;29;20462;-92
2023/01/29 09:20:25;;;;;;;23.63;12.10;;;;;;;3.70;nan;101990.06;4797922;29;20457;-93
2023/01/29 09:23:21;;;;;;;28.73;13.47;;;;;;;3.74;nan;101984.31;4811155;29;20830;-94
2023/01/29 09:25:50;;;;;;;27.53;10.73;;;;;;;3.85;nan;101979.91;4808533;29;20879;-94
2023/01/29 09:28:18;;;;;;;30.30;15.60;;;;;;;4.04;nan;101991.00;4795282;29;20737;-96
2023/01/29 09:30:50;;;;;;;35.60;17.33;;;;;;;4.18;nan;101981.78;4793914;29;20830;-95
2023/01/29 09:33:49;;;;;;;42.73;20.00;;;;;;;4.49;nan;101997.28;4790058;29;20457;-96
2023/01/29 09:36:31;;;;;;;37.00;17.73;;;;;;;4.57;nan;101981.28;4809484;29;20957;-93
2023/01/29 09:39:08;;;;;;;16.13;8.80;;;;;;;4.81;nan;101998.22;4794730;29;20458;-92
2023/01/29 09:42:06;;;;;;;16.03;8.70;;;;;;;5.09;nan;102004.09;4791171;29;20475;-93
2023/01/29 09:44:57;;;;;;;16.20;6.47;;;;;;;5.29;nan;102007.84;4805992;29;20486;-94
2023/01/29 09:47:26;;;;;;;7.13;4.17;;;;;;;5.42;nan;101992.25;4820170;29;20473;-93
2023/01/29 09:50:11;;;;;;;6.87;3.67;;;;;;;5.58;nan;101987.25;4819955;29;20463;-94
2023/01/29 09:52:57;;;;;;;7.30;3.93;;;;;;;5.88;nan;102000.03;4820992;29;20639;-93
2023/01/29 09:55:36;;;;;;;13.70;4.40;;;;;;;6.03;nan;101987.03;4790770;29;20469;-92
2023/01/29 09:58:29;;;;;;;10.77;6.30;;;;;;;6.45;nan;102009.53;4790731;29;20520;-93
2023/01/29 10:01:44;;;;;;;9.20;2.60;;;;;;;6.79;nan;102001.94;4808003;29;20469;-92
2023/01/29 10:04:50;;;;;;;4.10;1.37;;;;;;;7.18;nan;102002.88;4823802;29;20992;-91
2023/01/29 10:07:30;;;;;;;5.13;1.23;;;;;;;7.52;nan;102003.34;4822199;29;20462;-92
2023/01/29 10:10:12;;;;;;;4.23;1.47;;;;;;;7.79;nan;102008.06;4822741;29;20473;-88
2023/01/29 10:12:45;;;;;;;2.57;1.30;;;;;;;8.00;nan;102005.16;4822070;29;20486;-89
2023/01/29 10:19:29;;;;;;;5.53;3.20;;;;;;;8.38;nan;102010.53;4809317;29;20469;-90
2023/01/29 10:22:24;;;;;;;4.13;2.30;;;;;;;8.54;nan;102004.47;4810613;29;20549;-91
2023/01/29 10:25:15;;;;;;;4.10;2.20;;;;;;;8.77;nan;102010.38;4809420;29;20501;-92
2023/01/29 10:27:51;;;;;;;9.13;2.77;;;;;;;8.88;nan;102002.00;4778178;29;20518;-92
2023/01/29 10:30:40;;;;;;;6.63;3.60;;;;;;;9.04;nan;102012.25;4784811;29;20465;-92
2023/01/29 10:33:41;;;;;;;7.87;2.00;;;;;;;9.20;nan;102013.31;4795969;29;20466;-94
2023/01/29 10:36:52;;;;;;;3.00;1.37;;;;;;;9.46;nan;102002.47;4791117;29;20516;-92
2023/01/29 10:39:33;;;;;;;14.63;3.27;;;;;;;9.55;nan;101985.16;4809990;29;20467;-93
2023/01/29 10:42:23;;;;;;;7.63;3.10;;;;;;;9.90;nan;102005.25;4793595;29;20446;-92
2023/01/29 10:45:26;;;;;;;2.63;1.40;;;;;;;9.97;nan;101998.16;4817432;29;20872;-91
2023/01/29 10:48:18;;;;;;;3.90;1.60;;;;;;;10.24;nan;102002.63;4825165;29;20457;-89
2023/01/29 10:51:01;;;;;;;2.17;1.10;;;;;;;10.43;nan;102007.88;4822353;29;20953;-91
2023/01/29 10:54:23;;;;;;;4.30;2.07;;;;;;;10.56;nan;102007.44;4805433;29;20459;-94
2023/01/29 11:00:27;;;;;;;5.43;1.70;;;;;;;10.82;nan;101993.69;4808259;29;20466;-91
2023/01/29 11:06:47;;;;;;;3.43;1.50;;;;;;;11.06;nan;101966.44;4817224;29;20445;-96
2023/01/29 11:09:42;;;;;;;6.13;2.10;;;;;;;11.27;nan;101991.47;4785263;29;20831;-91
2023/01/29 11:12:29;;;;;;;2.13;1.17;;;;;;;11.39;nan;101983.78;4791079;29;20566;-91
2023/01/29 11:15:18;;;;;;;8.77;3.40;;;;;;;11.58;nan;102002.63;4806995;29;20824;-91
2023/01/29 11:18:17;;;;;;;3.43;1.53;;;;;;;11.68;nan;101997.84;4804421;29;20824;-93
2023/01/29 11:20:47;;;;;;;2.40;0.73;;;;;;;11.79;nan;101990.34;4807033;29;20450;-92
2023/01/29 11:23:36;;;;;;;4.27;1.53;;;;;;;11.94;nan;101999.56;4791992;29;20940;-93
2023/01/29 11:26:08;;;;;;;1.93;1.20;;;;;;;12.09;nan;102000.63;4820560;29;20917;-92
2023/01/29 11:28:51;;;;;;;5.40;2.17;;;;;;;12.21;nan;101988.25;4788769;29;20476;-92
2023/01/29 11:31:52;;;;;;;7.00;2.70;;;;;;;12.37;nan;101993.69;4783293;29;20470;-92
2023/01/29 11:34:28;;;;;;;6.87;3.00;;;;;;;12.39;nan;101977.94;4803415;29;20460;-93
2023/01/29 11:36:57;;;;;;;6.23;3.00;;;;;;;12.55;nan;101976.16;4813768;29;20465;-92
2023/01/29 11:39:27;;;;;;;3.70;1.97;;;;;;;12.60;nan;101962.78;4808073;29;20998;-92
2023/01/29 11:42:33;;;;;;;3.50;1.43;;;;;;;12.84;nan;101992.88;4753899;30;20452;-91
2023/01/29 11:45:28;;;;;;;3.97;1.70;;;;;;;12.92;nan;101979.09;4698680;30;20492;-92
2023/01/29 11:47:56;;;;;;;5.67;1.93;;;;;;;12.95;nan;101978.75;4684731;30;20491;-93
2023/01/29 11:50:26;;;;;;;4.87;2.23;;;;;;;13.04;nan;101974.06;4684916;30;20894;-92
2023/01/29 11:53:28;;;;;;;9.10;2.23;;;;;;;13.20;nan;101981.38;4685702;30;20479;-93
2023/01/29 11:56:24;;;;;;;6.60;1.70;;;;;;;13.31;nan;101975.47;4699881;30;20455;-92
2023/01/29 11:58:53;;;;;;;8.43;2.80;;;;;;;13.30;nan;101960.03;4690875;30;20496;-91
2023/01/29 12:04:46;;;;;;;5.00;1.10;;;;;;;13.62;nan;101965.31;4681175;30;20465;-92
2023/01/29 12:07:15;;;;;;;2.30;1.23;;;;;;;13.70;nan;101956.13;4718448;30;20466;-92
2023/01/29 12:10:36;;;;;;;1.53;0.77;;;;;;;13.82;nan;101963.75;4719912;30;20461;-93
2023/01/29 12:13:19;;;;;;;2.90;0.97;;;;;;;13.88;nan;101959.41;4754701;30;20491;-92
2023/01/29 12:19:45;;;;;;;2.17;1.30;;;;;;;13.93;nan;101926.72;4771746;29;20474;-93
2023/01/29 12:22:39;;;;;;;4.13;1.20;;;;;;;14.15;nan;101938.69;4758527;30;20951;-92
2023/01/29 12:25:41;;;;;;;1.37;0.70;;;;;;;14.20;nan;101925.25;4770359;30;20515;-94
2023/01/29 12:32:02;;;;;;;2.30;1.30;;;;;;;14.40;nan;101926.41;4772777;30;20475;-92
2023/01/29 12:34:47;;;;;;;1.53;1.00;;;;;;;14.42;nan;101924.34;4769861;30;20460;-91
2023/01/29 12:41:21;;;;;;;1.70;1.07;;;;;;;14.65;nan;101917.84;4768124;30;20464;-90
2023/01/29 12:44:10;;;;;;;1.70;0.67;;;;;;;14.60;nan;101892.81;4769915;30;20480;-91
2023/01/29 12:46:49;;;;;;;4.67;0.90;;;;;;;14.74;nan;101897.44;4743821;30;20498;-92
2023/01/29 12:49:29;;;;;;;7.50;0.83;;;;;;;14.83;nan;101899.00;4742580;30;20468;-92
2023/01/29 12:52:07;;;;;;;15.03;1.43;;;;;;;14.81;nan;101898.38;4772120;30;20463;-90
2023/01/29 12:54:45;;;;;;;1.80;0.70;;;;;;;14.80;nan;101882.91;4777380;30;20546;-90
2023/01/29 13:00:35;;;;;;;1.50;0.60;;;;;;;14.98;nan;101891.59;4771063;30;20471;-89
2023/01/29 13:03:05;;;;;;;1.33;0.73;;;;;;;15.06;nan;101882.34;4755211;30;20530;-90
2023/01/29 13:05:54;;;;;;;1.97;0.70;;;;;;;15.13;nan;101875.88;4773006;30;20567;-89
2023/01/29 13:08:30;;;;;;;2.13;0.67;;;;;;;15.17;nan;101874.44;4772769;30;20463;-89
2023/01/29 13:11:03;;;;;;;1.50;0.80;;;;;;;15.24;nan;101868.97;4745752;29;20464;-89
2023/01/29 13:13:38;;;;;;;3.73;1.10;;;;;;;15.24;nan;101857.09;4778956;29;20462;-90
2023/01/29 13:16:54;;;;;;;2.73;1.17;;;;;;;15.42;nan;101854.72;4796008;29;20448;-89
2023/01/29 13:19:39;;;;;;;2.80;0.80;;;;;;;15.50;nan;101858.19;4822977;29;20453;-89
2023/01/29 13:22:17;;;;;;;4.67;0.77;;;;;;;15.57;nan;101857.44;4794419;29;20473;-90
2023/01/29 13:24:44;;;;;;;6.73;0.77;;;;;;;15.53;nan;101840.44;4793924;29;20465;-89
2023/01/29 13:27:32;;;;;;;1.13;0.60;;;;;;;15.57;nan;101847.28;4792402;29;20466;-88
2023/01/29 13:30:19;;;;;;;2.90;0.87;;;;;;;15.68;nan;101843.09;4815797;29;20461;-91
2023/01/29 13:36:13;;;;;;;1.73;0.90;;;;;;;15.75;nan;101839.38;4796957;29;20486;-93
2023/01/29 13:38:44;;;;;;;2.60;0.90;;;;;;;15.72;nan;101817.72;4794078;29;20920;-95
2023/01/29 13:41:14;;;;;;;3.40;0.70;;;;;;;15.82;nan;101834.72;4789280;29;20466;-96
2023/01/29 13:44:03;;;;;;;4.10;0.80;;;;;;;15.91;nan;101832.69;4797339;29;20528;-95
2023/01/29 13:46:31;;;;;;;1.10;0.67;;;;;;;15.73;nan;101826.81;4805075;29;20477;-95
2023/01/29 13:49:32;;;;;;;1.43;0.67;;;;;;;15.74;nan;101821.13;4784183;29;20537;-93
2023/01/29 13:52:34;;;;;;;1.60;0.83;;;;;;;15.91;nan;101815.28;4800477;29;20451;-93
2023/01/29 13:55:21;;;;;;;6.10;0.70;;;;;;;16.04;nan;101807.06;4810474;29;20454;-94
2023/01/29 13:57:55;;;;;;;8.83;1.20;;;;;;;16.06;nan;101803.06;4829548;29;20461;-95
2023/01/29 14:00:47;;;;;;;1.67;0.70;;;;;;;16.20;nan;101812.25;4786260;29;20465;-93
2023/01/29 14:03:24;;;;;;;1.20;0.60;;;;;;;16.27;nan;101802.09;4803924;29;20467;-92
2023/01/29 14:06:00;;;;;;;2.17;1.00;;;;;;;16.22;nan;101791.69;4805632;29;21049;-92
2023/01/29 14:08:45;;;;;;;1.30;0.70;;;;;;;16.26;nan;101797.66;4784563;29;20469;-95
2023/01/29 14:15:18;;;;;;;2.17;0.70;;;;;;;16.35;nan;101779.88;4801631;29;21026;-92
2023/01/29 14:18:13;;;;;;;1.57;0.83;;;;;;;16.46;nan;101797.72;4809643;29;20481;-91
2023/01/29 14:20:52;;;;;;;1.70;0.77;;;;;;;16.44;nan;101788.81;4798670;29;20930;-92
2023/01/29 14:23:40;;;;;;;1.60;0.90;;;;;;;16.53;nan;101793.09;4811105;29;20456;-92
2023/01/29 14:26:44;;;;;;;2.23;0.80;;;;;;;16.54;nan;101784.59;4808383;29;20482;-93
2023/01/29 14:29:15;;;;;;;7.73;1.00;;;;;;;16.54;nan;101787.38;4802345;29;20475;-92
2023/01/29 14:32:06;;;;;;;1.73;0.77;;;;;;;16.43;nan;101774.16;4838076;29;20464;-93
2023/01/29 14:35:06;;;;;;;4.00;0.80;;;;;;;16.41;nan;101779.03;4812371;29;20462;-93
2023/01/29 14:37:35;;;;;;;5.67;0.90;;;;;;;16.48;nan;101782.66;4840615;29;20461;-95
2023/01/29 14:40:18;;;;;;;4.97;0.80;;;;;;;16.54;nan;101776.31;4810544;29;20465;-92
2023/01/29 14:43:07;;;;;;;26.90;1.97;;;;;;;16.49;nan;101765.06;4841436;29;20449;-94
2023/01/29 14:45:37;;;;;;;7.97;1.40;;;;;;;16.48;nan;101765.25;4826762;29;20493;-95
2023/01/29 14:48:37;;;;;;;3.90;1.00;;;;;;;16.60;nan;101782.91;4811817;29;20478;-95
2023/01/29 14:51:13;;;;;;;1.60;0.90;;;;;;;16.58;nan;101780.34;4840871;29;20456;-93
2023/01/29 14:57:59;;;;;;;2.37;0.70;;;;;;;16.67;nan;101777.44;4827477;29;20515;-91
2023/01/29 15:00:30;;;;;;;1.63;0.73;;;;;;;16.58;nan;101762.94;4811135;29;20476;-91
2023/01/29 15:04:06;;;;;;;5.03;0.90;;;;;;;16.45;nan;101752.72;4812623;29;20797;-95
2023/01/29 15:07:15;;;;;;;1.83;0.70;;;;;;;16.55;nan;101766.97;4810822;29;20488;-95
2023/01/29 15:13:35;;;;;;;20.47;1.90;;;;;;;16.37;nan;101763.94;4785323;29;20470;-93
2023/01/29 15:16:10;;;;;;;11.10;1.20;;;;;;;16.38;nan;101773.06;4789070;30;20477;-93
2023/01/29 15:18:41;;;;;;;3.87;0.97;;;;;;;16.31;nan;101767.53;4775276;30;20469;-92
2023/01/29 15:21:16;;;;;;;2.03;1.03;;;;;;;16.43;nan;101787.94;4788394;30;20619;-93
2023/01/29 15:23:47;;;;;;;2.70;0.87;;;;;;;16.46;nan;101789.44;4774569;30;20898;-93
2023/01/29 15:26:22;;;;;;;1.80;0.73;;;;;;;16.45;nan;101794.13;4788362;30;20578;-92
2023/01/29 15:29:00;;;;;;;2.53;1.00;;;;;;;16.32;nan;101780.28;4759971;30;20455;-95
2023/01/29 15:31:31;;;;;;;4.00;1.20;;;;;;;16.29;nan;101785.34;4774924;30;20868;-95
2023/01/29 15:34:01;;;;;;;3.70;1.13;;;;;;;16.28;nan;101794.69;4759607;30;20872;-94
2023/01/29 15:36:29;;;;;;;2.53;1.10;;;;;;;16.23;nan;101792.53;4788557;30;20471;-95
2023/01/29 15:39:30;;;;;;;2.70;1.10;;;;;;;16.32;nan;101809.78;4759247;30;20514;-94
2023/01/29 15:42:11;;;;;;;3.30;1.30;;;;;;;16.17;nan;101793.34;4770739;30;20470;-94
2023/01/29 15:44:44;;;;;;;6.73;1.80;;;;;;;16.15;nan;101796.34;4744908;30;20492;-95
2023/01/29 15:47:12;;;;;;;2.87;1.10;;;;;;;16.08;nan;101787.16;4793175;29;20493;-94
2023/01/29 15:49:41;;;;;;;2.77;1.40;;;;;;;16.11;nan;101808.81;4810431;29;20458;-93
2023/01/29 15:52:22;;;;;;;5.00;1.70;;;;;;;16.18;nan;101823.47;4825469;29;20518;-95
2023/01/29 15:54:50;;;;;;;3.03;1.30;;;;;;;15.96;nan;101801.75;4810858;29;20465;-94
2023/01/29 16:01:08;;;;;;;2.27;0.90;;;;;;;16.06;nan;101835.31;4826044;29;20899;-94
2023/01/29 16:03:37;;;;;;;1.80;0.90;;;;;;;15.99;nan;101823.38;4810218;29;20505;-95
2023/01/29 16:06:07;;;;;;;2.93;1.30;;;;;;;15.99;nan;101831.66;4758867;30;20487;-95
2023/01/29 16:08:37;;;;;;;2.63;1.17;;;;;;;15.93;nan;101826.97;4744698;30;20455;-95
2023/01/29 16:11:08;;;;;;;1.30;0.73;;;;;;;15.89;nan;101829.25;4759217;30;20462;-95
2023/01/29 16:13:39;;;;;;;2.37;1.00;;;;;;;15.81;nan;101826.66;4773371;30;20479;-94
2023/01/29 16:19:58;;;;;;;2.40;1.13;;;;;;;15.73;nan;101837.84;4791260;30;20395;-94
2023/01/29 16:26:14;;;;;;;1.57;1.07;;;;;;;15.48;nan;101834.66;4807452;29;20457;-94
2023/01/29 16:28:47;;;;;;;1.47;0.97;;;;;;;15.41;nan;101828.22;4792130;29;20466;-92
2023/01/29 16:36:05;;;;;;;3.67;0.80;;;;;;;15.32;nan;101865.25;4807431;29;20543;-93
2023/01/29 16:42:30;;;;;;;4.20;0.90;;;;;;;14.88;nan;101854.41;4808292;29;20440;-93
2023/01/29 16:48:40;;;;;;;2.20;1.17;;;;;;;14.57;nan;101843.69;4808507;29;20518;-94
2023/01/29 16:51:29;;;;;;;1.50;0.90;;;;;;;14.43;nan;101848.19;4807027;29;20466;-94
2023/01/29 16:54:17;;;;;;;4.27;1.90;;;;;;;14.27;nan;101849.19;4738392;30;20518;-94